Time;durP1;ratioP1;P1;durP2;ratioP2;P2;SDS_P1;SDS_P2;PMS_P1;PMS_P2;Temp;Humidity;BMP_temperature;BMP_pressure;BME280_temperature;BME280_humidity;BME280_pressure;Samples;Min_cycle;Max_cycle;Signal;HPM_P1;HPM_P2
2023/01/26 00:01:22;;;;;;;96.50;24.03;;;0.40;99.90;;;;;;4976687;28;20532;-71
2023/01/26 00:03:49;;;;;;;88.05;24.40;;;0.40;99.90;;;;;;5010282;28;20077;-71
2023/01/26 00:06:17;;;;;;;94.10;25.35;;;0.40;99.90;;;;;;5010267;28;20081;-71
2023/01/26 00:08:46;;;;;;;107.60;26.45;;;0.40;99.90;;;;;;5003457;28;20038;-71
2023/01/26 00:11:14;;;;;;;105.85;27.70;;;0.40;99.90;;;;;;5010686;28;20504;-72
2023/01/26 00:13:41;;;;;;;88.10;24.48;;;0.40;99.90;;;;;;4988878;28;20045;-72
2023/01/26 00:16:14;;;;;;;91.00;23.77;;;0.40;99.90;;;;;;5009682;28;20133;-71
2023/01/26 00:18:40;;;;;;;101.32;25.33;;;0.40;99.90;;;;;;5009248;28;20092;-71
2023/01/26 00:21:13;;;;;;;98.20;26.00;;;0.40;99.90;;;;;;5010428;28;20158;-71
2023/01/26 00:23:39;;;;;;;103.22;24.73;;;0.40;99.90;;;;;;5009368;28;20030;-71
2023/01/26 00:26:10;;;;;;;101.25;25.58;;;0.40;99.90;;;;;;5012661;28;20061;-72
2023/01/26 00:28:35;;;;;;;106.28;25.90;;;0.40;99.90;;;;;;4982752;28;20113;-71
2023/01/26 00:31:13;;;;;;;103.80;27.97;;;0.40;99.90;;;;;;4996492;28;20070;-71
2023/01/26 00:33:38;;;;;;;100.72;24.98;;;0.50;99.90;;;;;;5013681;28;20041;-71
2023/01/26 00:36:04;;;;;;;93.70;25.17;;;0.50;99.90;;;;;;5013358;28;20080;-71
2023/01/26 00:38:30;;;;;;;97.63;24.63;;;0.50;99.90;;;;;;5012744;28;20478;-71
2023/01/26 00:40:56;;;;;;;90.83;24.60;;;0.50;99.90;;;;;;5011319;28;20042;-71
2023/01/26 00:43:22;;;;;;;88.97;24.13;;;0.50;99.90;;;;;;5012466;28;20042;-71
2023/01/26 00:45:48;;;;;;;89.60;25.37;;;0.50;99.90;;;;;;5001868;28;20080;-71
2023/01/26 00:48:15;;;;;;;89.97;24.90;;;0.50;99.90;;;;;;5016212;28;20068;-71
2023/01/26 00:50:40;;;;;;;105.88;25.52;;;0.50;99.90;;;;;;5019056;28;20042;-71
2023/01/26 00:53:06;;;;;;;100.43;26.83;;;0.50;99.90;;;;;;5001946;28;20069;-71
2023/01/26 00:55:32;;;;;;;84.70;24.43;;;0.50;99.90;;;;;;5018773;28;20037;-71
2023/01/26 00:58:03;;;;;;;97.10;25.97;;;0.50;99.90;;;;;;5003939;28;20042;-71
2023/01/26 01:00:30;;;;;;;94.93;25.38;;;0.50;99.90;;;;;;5013972;28;20058;-71
2023/01/26 01:02:56;;;;;;;105.10;26.67;;;0.50;99.90;;;;;;5013079;28;20030;-71
2023/01/26 01:05:23;;;;;;;94.80;24.50;;;0.50;99.90;;;;;;4999640;28;20038;-71
2023/01/26 01:07:49;;;;;;;91.82;24.50;;;0.50;99.90;;;;;;5005690;28;20038;-71
2023/01/26 01:10:15;;;;;;;97.77;25.93;;;0.60;99.90;;;;;;5000937;28;20045;-71
2023/01/26 01:12:40;;;;;;;104.00;26.23;;;0.60;99.90;;;;;;4979449;28;20481;-71
2023/01/26 01:15:07;;;;;;;101.73;25.67;;;0.60;99.90;;;;;;4995711;28;20513;-71
2023/01/26 01:17:35;;;;;;;100.25;24.80;;;0.60;99.90;;;;;;5010273;28;20106;-71
2023/01/26 01:20:04;;;;;;;98.82;26.70;;;0.60;99.90;;;;;;4979738;28;20132;-71
2023/01/26 01:22:31;;;;;;;101.43;26.35;;;0.60;99.90;;;;;;5012834;28;20076;-71
2023/01/26 01:24:56;;;;;;;101.47;26.10;;;0.60;99.90;;;;;;4999123;28;20049;-71
2023/01/26 01:27:22;;;;;;;93.43;26.23;;;0.60;99.90;;;;;;4997731;28;20042;-71
2023/01/26 01:29:49;;;;;;;107.43;28.53;;;0.60;99.90;;;;;;4996773;28;20085;-71
2023/01/26 01:32:15;;;;;;;96.90;26.95;;;0.60;99.90;;;;;;5007556;28;20049;-71
2023/01/26 01:34:41;;;;;;;112.13;26.73;;;0.60;99.90;;;;;;5010328;28;20045;-71
2023/01/26 01:37:06;;;;;;;96.90;25.13;;;0.60;99.90;;;;;;5027740;28;20042;-71
2023/01/26 01:39:32;;;;;;;106.37;25.70;;;0.70;99.90;;;;;;5010971;28;20552;-71
2023/01/26 01:41:58;;;;;;;84.40;23.40;;;0.70;99.90;;;;;;4993674;28;20050;-71
2023/01/26 01:44:25;;;;;;;100.10;26.63;;;0.70;99.90;;;;;;4999590;28;20038;-71
2023/01/26 01:47:00;;;;;;;113.63;27.38;;;0.70;99.90;;;;;;5004937;28;20046;-71
2023/01/26 01:49:40;;;;;;;88.85;24.83;;;0.70;99.90;;;;;;5015061;28;20115;-71
2023/01/26 01:52:23;;;;;;;86.32;22.48;;;0.70;99.90;;;;;;5015056;28;20366;-71
2023/01/26 01:55:06;;;;;;;83.10;22.20;;;0.80;99.90;;;;;;5013738;28;20065;-71
2023/01/26 01:57:43;;;;;;;99.43;25.00;;;0.80;99.90;;;;;;5013909;28;20042;-71
2023/01/26 02:00:12;;;;;;;125.03;25.98;;;0.80;99.90;;;;;;5005283;28;20038;-71
2023/01/26 02:02:39;;;;;;;107.05;24.80;;;0.80;99.90;;;;;;5013354;28;20037;-71
2023/01/26 02:05:21;;;;;;;118.00;25.17;;;0.80;99.90;;;;;;5004742;28;20041;-72
2023/01/26 02:07:49;;;;;;;102.40;24.63;;;0.80;99.90;;;;;;5001491;28;20091;-72
2023/01/26 02:10:18;;;;;;;100.50;24.25;;;0.80;99.90;;;;;;5011887;28;20066;-72
2023/01/26 02:12:47;;;;;;;108.30;24.10;;;0.80;99.90;;;;;;5011595;28;20053;-72
2023/01/26 02:15:13;;;;;;;107.80;24.85;;;0.90;99.90;;;;;;5011424;28;20120;-72
2023/01/26 02:17:39;;;;;;;103.63;25.13;;;0.90;99.90;;;;;;5002964;28;20044;-72
2023/01/26 02:20:11;;;;;;;106.53;26.02;;;0.90;99.90;;;;;;4999171;28;20041;-72
2023/01/26 02:23:15;;;;;;;105.18;25.55;;;0.90;99.90;;;;;;5017926;28;20081;-72
2023/01/26 02:25:52;;;;;;;91.95;22.92;;;0.90;99.90;;;;;;5014921;28;20069;-72
2023/01/26 02:28:22;;;;;;;117.22;26.23;;;0.90;99.90;;;;;;5018051;28;20050;-72
2023/01/26 02:30:49;;;;;;;98.03;24.20;;;1.00;99.90;;;;;;5019467;28;20041;-72
2023/01/26 02:33:20;;;;;;;105.90;23.50;;;1.00;99.90;;;;;;5019251;28;20054;-72
2023/01/26 02:35:45;;;;;;;118.82;26.52;;;1.00;99.90;;;;;;5001392;28;20057;-72
2023/01/26 02:38:11;;;;;;;105.97;25.90;;;1.00;99.90;;;;;;5021698;28;20042;-72
2023/01/26 02:40:49;;;;;;;122.17;26.13;;;1.00;99.90;;;;;;5007866;28;20041;-72
2023/01/26 02:43:14;;;;;;;115.15;26.13;;;1.00;99.90;;;;;;5023429;28;20110;-72
2023/01/26 02:45:42;;;;;;;132.70;28.07;;;1.00;99.90;;;;;;5024364;28;20065;-72
2023/01/26 02:48:07;;;;;;;119.78;26.45;;;1.00;99.90;;;;;;5020014;28;20054;-72
2023/01/26 02:50:34;;;;;;;106.43;25.30;;;1.00;99.90;;;;;;5004947;28;20049;-72
2023/01/26 02:53:01;;;;;;;117.65;28.50;;;1.00;99.90;;;;;;5012192;28;20053;-72
2023/01/26 02:55:29;;;;;;;126.53;27.85;;;1.00;99.90;;;;;;5019743;28;20179;-72
2023/01/26 02:57:58;;;;;;;127.03;27.60;;;1.00;99.90;;;;;;5003538;28;20049;-72
2023/01/26 03:00:40;;;;;;;164.73;29.83;;;1.00;99.90;;;;;;5005155;28;20097;-72
2023/01/26 03:03:13;;;;;;;180.80;30.15;;;1.10;99.90;;;;;;5007157;28;20041;-72
2023/01/26 03:05:39;;;;;;;158.80;29.50;;;1.10;99.90;;;;;;5022138;28;20097;-72
2023/01/26 03:08:05;;;;;;;131.37;28.33;;;1.10;99.90;;;;;;5002432;28;20127;-72
2023/01/26 03:10:32;;;;;;;106.90;25.23;;;1.10;99.90;;;;;;5017864;28;20042;-72
2023/01/26 03:12:58;;;;;;;130.18;25.83;;;1.10;99.90;;;;;;4996924;28;20050;-71
2023/01/26 03:15:41;;;;;;;121.70;27.55;;;1.10;99.90;;;;;;5016452;28;20042;-71
2023/01/26 03:29:07;;;;;;;125.13;27.52;;;1.20;99.90;;;;;;4993091;28;20053;-71
2023/01/26 03:31:33;;;;;;;134.87;28.20;;;1.20;99.90;;;;;;5009884;28;20049;-72
2023/01/26 03:33:59;;;;;;;150.20;29.33;;;1.30;99.90;;;;;;4991987;28;20463;-72
2023/01/26 03:36:25;;;;;;;134.57;30.43;;;1.30;99.90;;;;;;5014394;28;20521;-72
2023/01/26 03:38:50;;;;;;;125.87;28.27;;;1.30;99.90;;;;;;5008775;28;20177;-71
2023/01/26 03:57:41;;;;;;;152.02;28.80;;;1.40;99.90;;;;;;5021164;28;20499;-72
2023/01/26 04:00:07;;;;;;;135.37;27.77;;;1.40;99.90;;;;;;5004430;28;20106;-72
2023/01/26 04:10:50;;;;;;;120.35;27.85;;;1.50;99.90;;;;;;5012489;28;20056;-72
2023/01/26 04:21:32;;;;;;;108.57;26.67;;;1.50;99.90;;;;;;5008617;28;20045;-72
2023/01/26 04:23:59;;;;;;;115.28;27.58;;;1.50;99.90;;;;;;5003236;28;20041;-72
2023/01/26 04:26:33;;;;;;;104.45;24.80;;;1.50;99.90;;;;;;5008616;28;20046;-72
2023/01/26 04:29:03;;;;;;;138.88;26.02;;;1.50;99.90;;;;;;4989340;28;20514;-72
2023/01/26 04:31:30;;;;;;;110.82;25.45;;;1.50;99.90;;;;;;4990657;28;20053;-72
2023/01/26 04:33:55;;;;;;;140.75;29.50;;;1.50;99.90;;;;;;4972762;28;20394;-71
2023/01/26 04:36:21;;;;;;;135.97;28.07;;;1.50;99.90;;;;;;5004243;28;20050;-71
2023/01/26 04:38:48;;;;;;;130.03;26.87;;;1.50;99.90;;;;;;4991898;28;20069;-71
2023/01/26 04:41:14;;;;;;;139.25;26.80;;;1.40;99.90;;;;;;4968505;28;20465;-71
2023/01/26 04:43:39;;;;;;;114.80;24.83;;;1.40;99.90;;;;;;4989350;28;20080;-72
2023/01/26 04:46:07;;;;;;;170.47;29.07;;;1.40;99.90;;;;;;4972664;28;20042;-72
2023/01/26 04:48:34;;;;;;;99.83;23.17;;;1.40;99.90;;;;;;4982250;28;1119772;-72
2023/01/26 04:51:03;;;;;;;117.90;25.30;;;1.40;99.90;;;;;;5004846;28;20053;-72
2023/01/26 04:53:30;;;;;;;111.03;25.33;;;1.30;99.90;;;;;;4992257;28;20309;-72
2023/01/26 04:55:56;;;;;;;101.07;25.25;;;1.30;99.90;;;;;;5006198;28;20465;-72
2023/01/26 04:58:22;;;;;;;134.53;26.43;;;1.30;99.90;;;;;;4991277;28;20029;-72
2023/01/26 05:00:55;;;;;;;201.87;30.03;;;1.30;99.90;;;;;;5009139;28;20057;-72
2023/01/26 05:03:22;;;;;;;194.88;28.92;;;1.20;99.90;;;;;;4988988;28;20041;-72
2023/01/26 05:05:50;;;;;;;113.72;24.58;;;1.20;99.90;;;;;;5004332;28;20077;-72
2023/01/26 05:08:17;;;;;;;182.65;28.45;;;1.20;99.90;;;;;;5008819;28;20042;-73
2023/01/26 05:10:43;;;;;;;208.35;29.15;;;1.10;99.90;;;;;;4992576;28;20048;-73
2023/01/26 05:13:09;;;;;;;152.02;27.25;;;1.10;99.90;;;;;;4991338;28;20353;-72
2023/01/26 05:15:35;;;;;;;121.15;24.73;;;1.00;99.90;;;;;;5000164;28;20046;-72
2023/01/26 05:18:01;;;;;;;135.63;25.55;;;1.00;99.90;;;;;;4992069;28;20107;-72
2023/01/26 05:20:27;;;;;;;114.15;23.60;;;1.00;99.90;;;;;;5008194;28;20057;-72
2023/01/26 05:22:53;;;;;;;122.43;23.10;;;1.00;99.90;;;;;;4990111;28;20130;-72
2023/01/26 05:25:19;;;;;;;99.20;20.90;;;1.00;99.90;;;;;;5006058;28;20091;-72
2023/01/26 05:27:46;;;;;;;67.18;16.05;;;1.10;99.90;;;;;;4993214;28;20042;-71
2023/01/26 05:30:12;;;;;;;84.88;17.38;;;1.10;99.90;;;;;;5008038;28;20117;-72
2023/01/26 05:32:38;;;;;;;70.03;14.52;;;1.20;99.90;;;;;;4991412;28;20132;-72
2023/01/26 05:35:05;;;;;;;52.30;10.30;;;1.30;99.90;;;;;;5008339;28;20136;-72
2023/01/26 05:37:31;;;;;;;51.80;8.40;;;1.40;99.90;;;;;;5007935;28;20124;-72
2023/01/26 05:39:56;;;;;;;49.60;6.03;;;1.50;99.90;;;;;;4988061;28;20141;-72
2023/01/26 05:42:23;;;;;;;36.40;4.00;;;1.60;99.90;;;;;;4998284;28;20044;-72
2023/01/26 05:44:49;;;;;;;35.13;3.67;;;1.80;99.90;;;;;;5021867;28;20229;-71
2023/01/26 05:47:15;;;;;;;28.77;3.93;;;2.00;99.90;;;;;;4999100;28;20080;-71
2023/01/26 05:49:44;;;;;;;41.42;3.83;;;2.20;99.90;;;;;;5005270;28;20423;-72
2023/01/26 05:52:14;;;;;;;30.05;4.07;;;2.40;99.90;;;;;;5008439;28;20073;-72
2023/01/26 05:54:39;;;;;;;33.40;4.50;;;2.50;99.90;;;;;;4993296;28;20084;-72
2023/01/26 05:57:06;;;;;;;40.47;3.83;;;2.60;99.90;;;;;;5005196;28;20471;-72
2023/01/26 05:59:31;;;;;;;40.03;3.83;;;2.70;99.90;;;;;;5020605;28;20046;-72
2023/01/26 06:01:58;;;;;;;40.30;4.30;;;2.80;99.90;;;;;;4991527;28;20045;-71
2023/01/26 06:04:24;;;;;;;37.88;3.75;;;2.90;99.90;;;;;;5008430;28;20038;-71
2023/01/26 06:06:57;;;;;;;38.90;4.30;;;2.90;99.90;;;;;;4991551;28;20042;-72
2023/01/26 06:09:23;;;;;;;39.53;3.65;;;3.00;99.90;;;;;;5007885;28;20824;-71
2023/01/26 06:11:49;;;;;;;35.45;3.67;;;3.00;99.90;;;;;;4996091;28;20528;-72
2023/01/26 06:14:15;;;;;;;34.00;3.92;;;3.00;99.90;;;;;;5012976;28;20468;-72
2023/01/26 06:16:41;;;;;;;33.50;3.83;;;3.00;99.90;;;;;;4990782;28;20038;-72
2023/01/26 06:19:09;;;;;;;35.20;3.40;;;3.00;99.90;;;;;;5004482;28;20498;-72
2023/01/26 06:21:35;;;;;;;35.47;4.30;;;3.00;99.90;;;;;;4996744;28;20069;-72
2023/01/26 06:24:02;;;;;;;31.63;4.07;;;3.00;99.90;;;;;;5011248;28;20034;-72
2023/01/26 06:26:28;;;;;;;39.17;4.82;;;3.00;99.90;;;;;;5014800;28;20055;-72
2023/01/26 06:28:54;;;;;;;32.83;3.50;;;3.00;99.90;;;;;;5013974;28;20048;-72
2023/01/26 06:31:24;;;;;;;39.00;5.47;;;3.10;99.90;;;;;;5009612;28;20088;-72
2023/01/26 06:33:50;;;;;;;40.55;4.13;;;3.00;99.90;;;;;;4992853;28;20099;-72
2023/01/26 06:36:16;;;;;;;31.25;4.38;;;3.00;99.90;;;;;;4989604;28;20038;-72
2023/01/26 06:38:47;;;;;;;38.45;4.88;;;3.00;99.90;;;;;;4991483;28;20088;-72
2023/01/26 06:41:14;;;;;;;37.85;4.88;;;3.00;99.90;;;;;;5002289;28;20105;-72
2023/01/26 06:43:47;;;;;;;33.05;4.85;;;3.00;99.90;;;;;;5018859;28;20117;-72
2023/01/26 06:46:13;;;;;;;38.08;3.63;;;3.00;99.90;;;;;;5007574;28;20052;-72
2023/01/26 06:48:39;;;;;;;40.53;4.53;;;3.00;99.90;;;;;;4988964;28;20525;-72
2023/01/26 06:51:17;;;;;;;43.10;4.97;;;2.90;99.90;;;;;;5008107;28;20041;-72
2023/01/26 06:53:50;;;;;;;33.42;4.35;;;2.90;99.90;;;;;;4990440;28;20045;-72
2023/01/26 06:56:16;;;;;;;34.20;5.88;;;2.80;99.90;;;;;;5007351;28;20046;-72
2023/01/26 06:58:42;;;;;;;43.23;5.40;;;2.80;99.90;;;;;;4990980;28;20092;-72
2023/01/26 07:01:25;;;;;;;33.33;5.33;;;2.80;99.90;;;;;;4991556;28;20038;-72
2023/01/26 07:03:54;;;;;;;35.58;4.10;;;2.80;99.90;;;;;;4991043;28;20509;-72
2023/01/26 07:06:20;;;;;;;35.47;3.47;;;2.70;99.90;;;;;;4987954;28;20048;-72
2023/01/26 07:08:46;;;;;;;38.47;5.15;;;2.70;99.90;;;;;;4974026;28;20085;-72
2023/01/26 07:11:13;;;;;;;39.53;3.92;;;2.70;99.90;;;;;;5006934;28;20038;-72
2023/01/26 07:13:39;;;;;;;34.97;4.18;;;2.70;99.90;;;;;;5006498;28;20054;-72
2023/01/26 07:16:08;;;;;;;32.97;4.03;;;2.70;99.90;;;;;;4990790;28;20129;-72
2023/01/26 07:18:33;;;;;;;38.88;5.30;;;2.70;99.90;;;;;;5007995;28;20316;-72
2023/01/26 07:21:04;;;;;;;37.63;4.67;;;2.70;99.90;;;;;;4984266;28;20139;-71
2023/01/26 07:23:30;;;;;;;39.80;4.30;;;2.60;99.90;;;;;;4999872;28;20038;-71
2023/01/26 07:25:56;;;;;;;42.27;4.57;;;2.70;99.90;;;;;;5006368;28;20042;-72
2023/01/26 07:28:22;;;;;;;41.37;6.10;;;2.60;99.90;;;;;;5006585;28;20045;-72
2023/01/26 07:30:48;;;;;;;33.95;5.90;;;2.60;99.90;;;;;;4987164;28;20474;-72
2023/01/26 07:33:14;;;;;;;30.40;4.43;;;2.50;99.90;;;;;;4989429;28;20073;-72
2023/01/26 07:35:40;;;;;;;45.65;5.45;;;2.50;99.90;;;;;;4989784;28;20050;-72
2023/01/26 07:38:06;;;;;;;40.43;5.57;;;2.40;99.90;;;;;;5006930;28;20050;-72
2023/01/26 07:40:33;;;;;;;40.35;7.55;;;2.40;99.90;;;;;;5000543;28;20030;-72
2023/01/26 07:42:59;;;;;;;32.25;4.28;;;2.40;99.90;;;;;;4990834;28;20100;-72
2023/01/26 07:45:28;;;;;;;46.07;7.37;;;2.40;99.90;;;;;;4990266;28;20030;-72
2023/01/26 07:47:54;;;;;;;46.88;7.60;;;2.40;99.90;;;;;;4985803;28;20050;-72
2023/01/26 07:50:20;;;;;;;42.97;5.72;;;2.40;99.90;;;;;;4988066;28;20145;-72
2023/01/26 07:52:51;;;;;;;34.73;4.73;;;2.50;99.90;;;;;;4984426;28;20124;-72
2023/01/26 07:55:19;;;;;;;27.15;4.10;;;2.50;99.90;;;;;;4988439;28;20642;-72
2023/01/26 07:57:47;;;;;;;28.98;4.22;;;2.50;99.90;;;;;;5004818;28;20058;-72
2023/01/26 08:00:14;;;;;;;35.28;4.78;;;2.50;99.90;;;;;;5005602;28;20524;-72
2023/01/26 08:02:40;;;;;;;31.30;4.45;;;2.40;99.90;;;;;;5001098;28;21210;-72
2023/01/26 08:05:06;;;;;;;32.03;3.97;;;2.50;99.90;;;;;;4991029;28;20049;-72
2023/01/26 08:07:31;;;;;;;31.97;3.73;;;2.40;99.90;;;;;;4987238;28;20185;-72
2023/01/26 08:09:58;;;;;;;31.83;4.30;;;2.40;99.90;;;;;;4989465;28;20301;-73
2023/01/26 08:12:24;;;;;;;40.92;3.85;;;2.40;99.90;;;;;;4992033;28;20442;-73
2023/01/26 08:14:50;;;;;;;32.33;3.25;;;2.50;99.90;;;;;;5007549;28;20038;-74
2023/01/26 08:17:16;;;;;;;33.03;3.40;;;2.50;99.90;;;;;;5003670;28;20088;-74
2023/01/26 08:19:45;;;;;;;34.50;4.22;;;2.50;99.90;;;;;;5006241;28;20030;-74
2023/01/26 08:22:11;;;;;;;26.92;3.55;;;2.50;99.90;;;;;;4988791;28;20050;-74
2023/01/26 08:24:37;;;;;;;33.50;4.27;;;2.50;99.90;;;;;;4990979;28;20394;-74
2023/01/26 08:27:03;;;;;;;30.10;3.87;;;2.50;99.90;;;;;;4990998;28;20215;-74
2023/01/26 08:29:30;;;;;;;34.38;3.50;;;2.50;99.90;;;;;;4976412;28;20145;-74
2023/01/26 08:31:55;;;;;;;31.77;3.80;;;2.60;99.90;;;;;;4991114;28;20042;-74
2023/01/26 08:34:22;;;;;;;27.70;3.93;;;2.60;99.90;;;;;;4972233;28;20121;-74
2023/01/26 08:36:48;;;;;;;34.15;4.40;;;2.60;99.90;;;;;;5004527;28;20054;-73
2023/01/26 08:39:13;;;;;;;27.40;4.10;;;2.70;99.90;;;;;;4990870;28;20057;-73
2023/01/26 08:41:39;;;;;;;29.07;3.50;;;2.70;99.90;;;;;;5004301;28;20057;-73
2023/01/26 08:44:06;;;;;;;25.17;3.43;;;2.70;99.90;;;;;;4995259;28;20330;-73
2023/01/26 08:46:32;;;;;;;26.10;3.50;;;2.80;99.90;;;;;;4995073;28;20044;-75
2023/01/26 08:48:57;;;;;;;24.10;3.38;;;2.80;99.90;;;;;;5011783;28;20376;-74
2023/01/26 08:51:25;;;;;;;22.00;3.67;;;2.80;99.90;;;;;;4995772;28;20125;-74
2023/01/26 08:53:53;;;;;;;35.10;4.15;;;2.80;99.90;;;;;;5011821;28;20046;-73
2023/01/26 08:56:19;;;;;;;36.10;3.53;;;2.80;99.90;;;;;;5011191;28;20057;-73
2023/01/26 08:58:45;;;;;;;28.48;3.05;;;2.80;99.90;;;;;;4994964;28;20049;-73
2023/01/26 09:01:13;;;;;;;30.07;4.07;;;2.80;99.90;;;;;;5010970;28;20034;-73
2023/01/26 09:03:39;;;;;;;27.90;4.57;;;2.80;99.90;;;;;;5011575;28;20490;-73
2023/01/26 09:06:07;;;;;;;29.13;4.50;;;2.90;99.90;;;;;;4994894;28;20072;-74
2023/01/26 09:08:33;;;;;;;33.75;3.83;;;3.10;99.90;;;;;;5010978;28;20041;-74
2023/01/26 09:10:59;;;;;;;32.73;4.50;;;3.10;99.90;;;;;;5011060;28;20042;-73
2023/01/26 09:13:25;;;;;;;39.00;3.97;;;3.10;99.90;;;;;;5010733;28;20124;-74
2023/01/26 09:15:51;;;;;;;30.40;3.63;;;3.10;99.90;;;;;;5010680;28;20134;-74
2023/01/26 09:18:16;;;;;;;29.13;3.60;;;3.00;99.90;;;;;;5011241;28;20046;-74
2023/01/26 09:20:43;;;;;;;31.67;3.30;;;3.00;99.90;;;;;;5011345;28;20048;-73
2023/01/26 09:23:16;;;;;;;25.15;3.40;;;3.00;99.90;;;;;;4991522;28;20049;-74
2023/01/26 09:25:43;;;;;;;26.25;3.58;;;2.90;99.90;;;;;;4983095;28;20490;-74
2023/01/26 09:28:08;;;;;;;25.55;4.05;;;2.90;99.90;;;;;;4996315;28;20046;-73
2023/01/26 09:30:34;;;;;;;28.60;3.80;;;2.90;99.90;;;;;;5013534;28;20050;-73
2023/01/26 09:33:02;;;;;;;26.20;3.87;;;2.90;99.90;;;;;;5012147;28;20528;-73
2023/01/26 09:35:29;;;;;;;25.70;4.50;;;2.90;99.90;;;;;;5012921;28;20046;-74
2023/01/26 09:37:57;;;;;;;27.55;4.95;;;2.90;99.90;;;;;;5013372;28;20093;-73
2023/01/26 09:40:38;;;;;;;31.30;4.70;;;3.00;99.90;;;;;;5027361;28;20069;-73
2023/01/26 09:43:30;;;;;;;30.25;5.18;;;3.20;99.90;;;;;;4993826;28;20068;-73
2023/01/26 09:46:21;;;;;;;31.70;4.47;;;3.30;99.90;;;;;;5005946;28;20038;-74
2023/01/26 09:48:53;;;;;;;23.98;4.13;;;3.50;99.90;;;;;;4996128;28;20779;-73
2023/01/26 09:51:27;;;;;;;26.38;6.15;;;3.80;99.90;;;;;;4995668;28;20042;-73
2023/01/26 09:54:02;;;;;;;27.73;3.47;;;4.00;99.90;;;;;;5003118;28;20072;-74
2023/01/26 09:56:31;;;;;;;35.42;6.47;;;4.30;99.90;;;;;;5018498;28;20387;-73
2023/01/26 09:59:06;;;;;;;29.48;2.53;;;4.50;99.90;;;;;;5019662;28;20069;-73
2023/01/26 10:02:09;;;;;;;24.17;2.80;;;4.80;99.90;;;;;;5021257;28;20038;-75
2023/01/26 10:04:36;;;;;;;23.38;3.45;;;5.00;99.90;;;;;;5019735;28;20041;-74
2023/01/26 10:07:08;;;;;;;25.67;3.58;;;5.20;99.90;;;;;;5020015;28;20056;-74
2023/01/26 10:09:36;;;;;;;26.17;2.97;;;5.40;99.90;;;;;;5006515;28;20037;-74
2023/01/26 10:12:14;;;;;;;30.15;3.80;;;5.50;99.90;;;;;;5023826;28;20111;-73
2023/01/26 10:15:02;;;;;;;21.73;2.95;;;5.60;99.90;;;;;;5022694;28;20129;-73
2023/01/26 10:17:32;;;;;;;23.58;3.03;;;5.70;99.90;;;;;;5022020;28;20650;-72
2023/01/26 10:20:13;;;;;;;20.02;2.42;;;5.80;99.90;;;;;;5023731;28;20311;-73
2023/01/26 10:22:45;;;;;;;20.02;2.60;;;5.90;99.90;;;;;;5019912;28;20034;-73
2023/01/26 10:25:26;;;;;;;17.23;2.75;;;6.00;99.90;;;;;;5019336;28;20042;-73
2023/01/26 10:27:53;;;;;;;25.85;3.45;;;6.10;99.90;;;;;;5023454;28;20037;-73
2023/01/26 10:30:20;;;;;;;21.65;3.03;;;6.20;99.90;;;;;;5020471;28;20049;-73
2023/01/26 10:32:52;;;;;;;18.83;2.75;;;6.30;99.90;;;;;;5021668;28;20046;-73
2023/01/26 10:35:20;;;;;;;27.33;2.40;;;6.30;99.90;;;;;;5017169;28;20478;-73
2023/01/26 10:37:46;;;;;;;22.30;2.88;;;6.40;99.90;;;;;;5000460;28;20069;-73
2023/01/26 10:40:12;;;;;;;21.55;3.25;;;6.40;99.90;;;;;;4997870;28;20045;-72
2023/01/26 10:42:39;;;;;;;20.77;2.45;;;6.50;99.90;;;;;;5014144;28;20065;-72
2023/01/26 10:45:29;;;;;;;17.83;2.83;;;6.50;99.90;;;;;;5014245;28;20054;-72
2023/01/26 10:48:23;;;;;;;20.83;3.08;;;6.60;99.90;;;;;;5014003;28;20131;-72
2023/01/26 10:50:49;;;;;;;18.20;3.40;;;6.70;99.90;;;;;;4997605;28;20054;-72
2023/01/26 10:53:24;;;;;;;17.88;2.85;;;6.70;99.90;;;;;;5011732;28;20150;-72
2023/01/26 10:56:12;;;;;;;23.15;2.90;;;6.70;99.90;;;;;;5012054;28;20091;-72
2023/01/26 10:58:48;;;;;;;21.48;3.53;;;6.80;99.90;;;;;;4997786;28;20042;-72
2023/01/26 11:01:17;;;;;;;20.48;2.70;;;6.80;99.90;;;;;;4995761;28;20045;-72
2023/01/26 11:04:11;;;;;;;18.80;2.38;;;6.90;99.90;;;;;;5009699;28;20494;-72
2023/01/26 11:06:37;;;;;;;14.40;2.08;;;7.00;99.90;;;;;;5011902;28;20049;-73
2023/01/26 11:09:25;;;;;;;15.88;2.05;;;7.00;99.90;;;;;;4978099;28;20074;-72
2023/01/26 11:12:04;;;;;;;18.40;2.50;;;7.10;99.90;;;;;;4992166;28;20042;-72
2023/01/26 11:14:31;;;;;;;19.08;3.13;;;7.10;99.90;;;;;;4996350;28;20516;-72
2023/01/26 11:17:29;;;;;;;19.98;2.88;;;7.10;99.90;;;;;;5009305;28;20046;-72
2023/01/26 11:20:32;;;;;;;19.67;2.40;;;7.10;99.90;;;;;;5005676;28;20064;-72
2023/01/26 11:23:21;;;;;;;20.80;2.88;;;7.20;99.90;;;;;;5011970;28;20041;-73
2023/01/26 11:26:15;;;;;;;21.33;2.13;;;7.10;99.90;;;;;;5012751;28;20045;-73
2023/01/26 11:28:59;;;;;;;18.65;2.53;;;7.20;99.90;;;;;;5012108;28;20085;-73
2023/01/26 11:32:16;;;;;;;20.25;2.35;;;7.20;99.90;;;;;;5007849;28;20049;-73
2023/01/26 11:35:11;;;;;;;20.90;2.72;;;7.20;99.90;;;;;;4953227;28;20060;-73
2023/01/26 11:37:59;;;;;;;18.25;3.25;;;7.30;99.90;;;;;;5008526;28;20042;-73
2023/01/26 11:40:49;;;;;;;13.07;2.50;;;7.30;99.90;;;;;;5023820;28;20042;-73
2023/01/26 11:43:36;;;;;;;15.52;2.85;;;7.30;99.90;;;;;;5024640;28;20418;-73
2023/01/26 11:46:24;;;;;;;19.98;2.58;;;7.20;99.90;;;;;;4990513;28;20506;-72
2023/01/26 11:49:27;;;;;;;21.00;2.83;;;7.20;99.90;;;;;;5009307;28;20050;-73
2023/01/26 11:52:27;;;;;;;21.63;2.72;;;7.10;99.90;;;;;;5009201;28;20037;-73
2023/01/26 11:55:02;;;;;;;20.35;3.85;;;7.00;99.90;;;;;;5010863;28;20042;-72
2023/01/26 11:57:30;;;;;;;15.05;1.55;;;7.20;99.90;;;;;;4994624;28;20045;-72
2023/01/26 12:00:03;;;;;;;13.93;1.70;;;7.30;99.90;;;;;;5008827;28;20050;-73
2023/01/26 12:02:35;;;;;;;10.20;1.52;;;7.50;99.90;;;;;;5008379;28;20034;-73
2023/01/26 12:05:16;;;;;;;13.63;1.23;;;7.60;99.90;;;;;;5008978;28;20053;-72
2023/01/26 12:07:55;;;;;;;13.63;1.40;;;7.60;99.90;;;;;;4987627;28;20093;-73
2023/01/26 12:10:54;;;;;;;13.27;1.58;;;7.60;99.90;;;;;;5008003;28;20053;-74
2023/01/26 12:13:22;;;;;;;16.20;1.52;;;7.50;99.90;;;;;;5024371;28;20049;-73
2023/01/26 12:15:58;;;;;;;12.48;1.92;;;7.50;99.90;;;;;;5011598;28;20050;-73
2023/01/26 12:18:40;;;;;;;17.20;1.65;;;7.50;99.90;;;;;;5008881;28;20044;-73
2023/01/26 12:21:10;;;;;;;10.40;1.30;;;7.60;99.90;;;;;;5012831;28;20054;-74
2023/01/26 12:23:48;;;;;;;12.57;1.63;;;7.60;99.90;;;;;;5011094;28;20034;-74
2023/01/26 12:26:17;;;;;;;9.32;1.05;;;7.70;99.90;;;;;;5004173;28;20038;-74
2023/01/26 12:28:49;;;;;;;13.38;1.48;;;7.70;99.90;;;;;;4978403;28;20110;-74
2023/01/26 12:31:31;;;;;;;12.73;1.25;;;7.70;99.90;;;;;;5006813;28;20126;-73
2023/01/26 12:33:56;;;;;;;9.13;0.90;;;7.60;99.90;;;;;;5009467;28;20056;-74
2023/01/26 12:36:53;;;;;;;9.53;1.27;;;7.50;99.90;;;;;;4991111;28;20503;-74
2023/01/26 12:39:33;;;;;;;7.28;0.93;;;7.40;99.90;;;;;;5022923;28;20475;-73
2023/01/26 12:42:28;;;;;;;11.63;1.30;;;7.20;99.90;;;;;;5009269;28;20045;-73
2023/01/26 12:45:00;;;;;;;12.95;1.52;;;7.10;99.90;;;;;;5008640;28;20035;-73
2023/01/26 12:47:49;;;;;;;13.10;2.00;;;7.10;99.90;;;;;;4990645;28;20561;-73
2023/01/26 12:50:28;;;;;;;17.35;1.63;;;7.30;99.90;;;;;;5007772;28;20068;-73
2023/01/26 12:53:13;;;;;;;12.07;1.33;;;7.50;99.90;;;;;;5011568;28;20049;-74
2023/01/26 12:55:45;;;;;;;15.48;1.58;;;7.60;99.90;;;;;;4992318;28;20050;-73
2023/01/26 12:58:22;;;;;;;14.77;1.95;;;7.60;99.90;;;;;;5011484;28;20069;-74
2023/01/26 13:01:11;;;;;;;14.32;1.40;;;7.60;99.90;;;;;;5009731;28;20125;-73
2023/01/26 13:03:49;;;;;;;16.23;1.63;;;7.60;99.90;;;;;;5008244;28;20681;-74
2023/01/26 13:06:15;;;;;;;15.50;1.90;;;7.70;99.90;;;;;;5010700;28;20089;-74
2023/01/26 13:08:56;;;;;;;17.40;1.70;;;7.70;99.90;;;;;;5011010;28;20049;-75
2023/01/26 13:11:54;;;;;;;11.45;1.25;;;7.60;99.90;;;;;;5009164;28;20049;-74
2023/01/26 13:14:32;;;;;;;13.30;1.63;;;7.60;99.90;;;;;;4994198;28;20042;-74
2023/01/26 13:17:22;;;;;;;15.95;1.80;;;7.60;99.90;;;;;;5010672;28;20136;-74
2023/01/26 13:19:52;;;;;;;14.10;1.83;;;7.70;99.90;;;;;;5008578;28;20469;-73
2023/01/26 13:22:18;;;;;;;15.43;1.48;;;7.60;99.90;;;;;;5009856;28;20122;-74
2023/01/26 13:25:17;;;;;;;17.43;1.73;;;7.60;99.90;;;;;;4994256;28;20145;-74
2023/01/26 13:27:56;;;;;;;10.75;1.45;;;7.50;99.90;;;;;;5010864;28;20049;-73
2023/01/26 13:30:22;;;;;;;13.30;1.60;;;7.50;99.90;;;;;;5009728;28;20422;-74
2023/01/26 13:32:47;;;;;;;14.73;1.83;;;7.60;99.90;;;;;;5009739;28;20064;-74
2023/01/26 13:35:17;;;;;;;12.30;1.30;;;7.60;99.90;;;;;;5010192;28;20037;-74
2023/01/26 13:37:55;;;;;;;10.48;1.17;;;7.60;99.90;;;;;;4994709;28;20038;-74
2023/01/26 13:40:33;;;;;;;17.08;1.52;;;7.60;99.90;;;;;;4993690;28;20141;-74
2023/01/26 13:43:39;;;;;;;11.90;1.20;;;7.50;99.90;;;;;;5008788;28;20041;-74
2023/01/26 13:46:24;;;;;;;12.30;1.50;;;7.50;99.90;;;;;;5006794;28;20060;-77